• Join FlightAware (Why Join?)
  • Login
  • US Flag 
05:36AM EDT


 

Airport Tracker/Info


-or-


 

Live Flight TrackerFlight Track Log ✈ UPS2591 ✈ 31-Dec-2013 ✈ KOMA - KSDF

Flight Track Log - Related Links

Times and Time Zones

All times are in EST time to prevent confusion due to time zone crossing. See the UPS2591 flight status page for this flight to view local times or setup timezone preferences in your user account.

Time Position Orientation Groundspeed Altitude Reporting Facility
EST Latitude Longitude Course Direction KTS MPH feet Rate Location/Type
12:34PM 41.1744 -95.6614 118° Southeast 283 326 10,400  Level Minneapolis Center
12:35PM 41.1264 -95.5439 118° Southeast 330 380 11,900 1,980 Climbing Minneapolis Center
12:36PM 41.0717 -95.4083 118° Southeast 400 460 14,500 2,820 Climbing Minneapolis Center
12:37PM 41.0019 -95.2375 118° Southeast 433 498 17,800 2,640 Climbing Minneapolis Center
12:38PM 40.9375 -95.0861 119° Southeast 470 541 20,000 1,980 Climbing Minneapolis Center
12:39PM 40.8722 -94.9297 119° Southeast 491 565 22,000 1,980 Climbing Minneapolis Center
12:44PM 40.4821 -94.0137 119° Southeast 503 579 33,200 1,320 Climbing FlightAware ADS-B
12:48PM 40.2024 -93.3741 120° Southeast 495 570 35,000 420 Climbing FlightAware ADS-B
12:48PM 40.2001 -93.3690 121° Southeast 495 570 35,000  Level FlightAware ADS-B
12:49PM 40.1678 -93.2964 120° Southeast 495 570 35,000  Level Minneapolis Center
12:50PM 40.1128 -93.1711 120° Southeast 496 571 35,000  Level Kansas City Center
12:51PM 40.0442 -93.0164 120° Southeast 498 573 35,000  Level Kansas City Center
12:52PM 39.9744 -92.8628 121° Southeast 500 575 35,000  Level Kansas City Center
12:53PM 39.9064 -92.7103 121° Southeast 497 572 35,000  Level Kansas City Center
12:54PM 39.8228 -92.5244 120° Southeast 501 577 35,000  Level Kansas City Center
12:55PM 39.7519 -92.3739 121° Southeast 497 572 35,000  Level Kansas City Center
12:56PM 39.6817 -92.2181 120° Southeast 502 578 35,000  Level Kansas City Center
12:57PM 39.6097 -92.0619 121° Southeast 506 582 35,000  Level Kansas City Center
12:58PM 39.5381 -91.9053 121° Southeast 510 587 35,000  Level Kansas City Center
12:59PM 39.4647 -91.7494 121° Southeast 510 587 35,000  Level Kansas City Center
01:00PM 39.3800 -91.5694 121° Southeast 509 586 35,000  Level Kansas City Center
01:01PM 39.3072 -91.4144 121° Southeast 507 583 35,000  Level Kansas City Center
01:02PM 39.2342 -91.2592 121° Southeast 508 585 35,000  Level Kansas City Center
01:03PM 39.1606 -91.1047 122° Southeast 508 585 35,000  Level Kansas City Center
01:04PM 39.0861 -90.9492 122° Southeast 508 585 35,000  Level Kansas City Center
01:05PM 39.0164 -90.7467 114° Southeast 521 600 35,000  Level Kansas City Center
01:06PM 38.9750 -90.5686 107° East 520 598 35,000  Level Kansas City Center
01:07PM 38.9322 -90.3922 107° East 516 594 35,000  Level Kansas City Center
01:08PM 38.8892 -90.2167 107° East 514 592 35,000  Level Kansas City Center
01:09PM 38.8456 -90.0417 108° East 513 590 35,000  Level Kansas City Center
01:10PM 38.8019 -89.8581 107° East 519 597 35,000  Level Kansas City Center
01:11PM 38.7564 -89.6758 108° East 530 610 35,000  Level Kansas City Center
01:12PM 38.7089 -89.4914 108° East 541 623 35,000  Level Kansas City Center
01:14PM 38.6622 -89.3072 108° East 545 627 35,000 -240 Level Kansas City Center
01:15PM 38.6036 -89.0794 108° East 547 629 34,600 -840 Descending Kansas City Center
01:16PM 38.5572 -88.8978 108° East 539 620 33,300 -1,440 Descending Kansas City Center
01:17PM 38.5106 -88.7169 108° East 539 620 31,700 -1,380 Descending Kansas City Center
01:18PM 38.4658 -88.5267 107° East 546 628 30,500 -1,080 Descending Kansas City Center
01:19PM 38.4453 -88.3347 98° East 544 626 29,500 -780 Descending Kansas City Center
01:20PM 38.4253 -88.1417 97° East 547 629 29,000 -720 Descending Kansas City Center
01:20PM 38.4119 -88.0272 98° East 551 634 28,400 -960 Descending Indianapolis Center
01:21PM 38.3897 -87.8317 98° East 555 639 27,500 -960 Descending Indianapolis Center
01:22PM 38.3672 -87.6394 98° East 550 633 26,500 -1,380 Descending Indianapolis Center
01:23PM 38.3442 -87.4472 99° East 549 632 24,700 -2,400 Descending Indianapolis Center
01:24PM 38.3217 -87.2625 99° East 535 616 21,600 -3,240 Descending Indianapolis Center
01:25PM 38.2956 -87.0506 99° East 517 595 18,100 -2,760 Descending Indianapolis Center
01:26PM 38.2769 -86.8983 99° East 488 562 16,000 -2,340 Descending Indianapolis Center
01:27PM 38.2578 -86.7389 99° East 462 532 13,400 -2,280 Descending Indianapolis Center
01:28PM 38.2375 -86.5886 100° East 438 504 11,400 -1,320 Descending Indianapolis Center
01:30PM 38.2225 -86.4575 98° East 380 437 10,700 -1,080 Descending Indianapolis Center
01:31PM 38.2214 -86.3211 91° East 321 369 9,200 -1,920 Descending Indianapolis Center
01:32PM 38.2311 -86.2175 83° East 300 345 6,800 -2,340 Descending Indianapolis Center
01:33PM 38.2431 -86.1169 81° East 293 337 4,500 -1,380 Descending Indianapolis Center
01:34PM 38.2578 -86.0264 78° East 275 316 4,000 -540 Descending Indianapolis Center
01:35PM 38.2708 -85.9439 79° East 255 293 3,500 -540 Descending Indianapolis Center
01:36PM 38.2842 -85.8678 77° East 236 272 3,000 -480 Descending Indianapolis Center
01:37PM 38.2961 -85.8017 77° East 204 235 2,600 -300 Descending Indianapolis Center
01:38PM 38.2858 -85.7525 105° East 191 220 2,400 -240 Descending Indianapolis Center
01:40PM 38.1741 -85.7365 130° Southeast  Level Estimated
01:47PM 38.1741 -85.7365 130° Southeast  Level Estimated